createdAt,value
2023-03-16T00:02:25.381Z,100823.53
2023-03-16T00:06:28.479Z,100812.41
2023-03-16T00:10:32.046Z,100805.13
2023-03-16T00:14:35.926Z,100797.25
2023-03-16T00:18:46.344Z,100788.13
2023-03-16T00:22:49.434Z,100795.91
2023-03-16T00:26:54.791Z,100793.41
2023-03-16T00:30:59.005Z,100799.00
2023-03-16T00:35:05.045Z,100793.22
2023-03-16T00:39:08.694Z,100797.13
2023-03-16T00:43:11.857Z,100791.06
2023-03-16T00:47:15.497Z,100793.97
2023-03-16T00:51:20.524Z,100779.75
2023-03-16T00:55:23.843Z,100766.28
2023-03-16T00:59:27.293Z,100765.59
2023-03-16T01:03:30.639Z,100757.78
2023-03-16T01:07:36.195Z,100757.09
2023-03-16T01:11:39.678Z,100752.06
2023-03-16T01:15:42.964Z,100740.25
2023-03-16T01:19:47.457Z,100736.16
2023-03-16T01:23:53.940Z,100734.59
2023-03-16T01:27:57.175Z,100736.47
2023-03-16T01:32:00.651Z,100721.72
2023-03-16T01:36:06.832Z,100715.00
2023-03-16T01:40:20.387Z,100711.47
2023-03-16T01:44:30.460Z,100708.56
2023-03-16T01:48:42.282Z,100701.47
2023-03-16T01:52:45.879Z,100699.31
2023-03-16T01:56:58.260Z,100711.28
2023-03-16T02:01:01.363Z,100712.84
2023-03-16T02:05:09.218Z,100704.03
2023-03-16T02:09:13.270Z,100692.34
2023-03-16T02:13:17.742Z,100695.41
2023-03-16T02:17:23.987Z,100689.69
2023-03-16T02:21:36.651Z,100678.88
2023-03-16T02:25:48.843Z,100688.84
2023-03-16T02:30:01.374Z,100678.72
2023-03-16T02:34:10.628Z,100668.25
2023-03-16T02:38:14.219Z,100658.81
2023-03-16T02:42:27.734Z,100653.06
2023-03-16T02:46:36.011Z,100641.88
2023-03-16T02:50:47.107Z,100649.53
2023-03-16T02:54:50.886Z,100640.56
2023-03-16T02:58:54.013Z,100645.47
2023-03-16T03:02:59.492Z,100631.78
2023-03-16T03:07:05.056Z,100633.47
2023-03-16T03:11:19.717Z,100630.41
2023-03-16T03:15:22.954Z,100630.97
2023-03-16T03:19:37.872Z,100626.38
2023-03-16T03:23:40.980Z,100624.34
2023-03-16T03:27:45.280Z,100620.97
2023-03-16T03:31:51.431Z,100617.59
2023-03-16T03:35:57.549Z,100619.81
2023-03-16T03:40:04.774Z,100620.97
2023-03-16T03:44:07.824Z,100625.38
2023-03-16T03:48:12.488Z,100621.97
2023-03-16T03:52:17.073Z,100627.72
2023-03-16T03:56:20.526Z,100620.28
2023-03-16T04:00:23.914Z,100616.22
2023-03-16T04:04:27.627Z,100618.25
2023-03-16T04:08:32.144Z,100627.38
2023-03-16T04:12:35.786Z,100631.09
2023-03-16T04:16:39.330Z,100627.06
2023-03-16T04:20:42.915Z,100617.25
2023-03-16T04:24:52.365Z,100611.69
2023-03-16T04:28:56.566Z,100604.06
2023-03-16T04:32:59.831Z,100594.78
2023-03-16T04:37:03.403Z,100598.66
2023-03-16T04:41:11.430Z,100589.19
2023-03-16T04:45:21.141Z,100591.56
2023-03-16T04:49:27.657Z,100585.31
2023-03-16T04:53:31.916Z,100584.78
2023-03-16T04:57:40.582Z,100579.03
2023-03-16T05:01:44.657Z,100581.06
2023-03-16T05:05:51.038Z,100585.81
2023-03-16T05:09:54.898Z,100581.41
2023-03-16T05:13:59.913Z,100577.88
2023-03-16T05:18:03.304Z,100580.06
2023-03-16T05:22:07.345Z,100585.81
2023-03-16T05:26:11.375Z,100577.00
2023-03-16T05:30:17.492Z,100589.88
2023-03-16T05:34:21.566Z,100594.59
2023-03-16T05:38:25.096Z,100587.16
2023-03-16T05:42:29.984Z,100598.66
2023-03-16T05:46:39.022Z,100586.13
2023-03-16T05:50:43.500Z,100576.53
2023-03-16T05:54:48.310Z,100587.50
2023-03-16T05:58:51.992Z,100582.91
2023-03-16T06:02:56.724Z,100588.53
2023-03-16T06:07:04.664Z,100577.00
2023-03-16T06:11:08.969Z,100584.59
2023-03-16T06:15:13.634Z,100579.38
2023-03-16T06:19:18.528Z,100581.91
2023-03-16T06:23:25.745Z,100584.78
2023-03-16T06:27:30.759Z,100577.34
2023-03-16T06:31:43.634Z,100572.59
2023-03-16T06:35:49.995Z,100578.16
2023-03-16T06:40:00.663Z,100582.56
2023-03-16T06:44:06.317Z,100572.25
2023-03-16T06:48:13.160Z,100585.59
2023-03-16T06:52:17.941Z,100595.91
2023-03-16T06:56:21.754Z,100599.28
2023-03-16T07:00:27.033Z,100598.91
2023-03-16T07:04:30.461Z,100600.25
2023-03-16T07:08:36.399Z,100599.38
2023-03-16T07:12:39.676Z,100612.38
2023-03-16T07:16:43.326Z,100605.25
2023-03-16T07:20:47.000Z,100602.16
2023-03-16T07:24:57.403Z,100587.22
2023-03-16T07:29:04.829Z,100592.22
2023-03-16T07:33:08.186Z,100585.41
2023-03-16T07:37:12.100Z,100575.59
2023-03-16T07:41:17.123Z,100586.88
2023-03-16T07:45:21.624Z,100584.25
2023-03-16T07:49:24.898Z,100594.91
2023-03-16T07:53:30.384Z,100603.81
2023-03-16T07:57:53.212Z,100598.88
2023-03-16T08:02:03.969Z,100585.53
2023-03-16T08:06:08.149Z,100593.94
2023-03-16T08:10:13.111Z,100582.53
2023-03-16T08:14:34.502Z,100583.72
2023-03-16T08:18:45.959Z,100584.19
2023-03-16T08:22:50.844Z,100564.09
2023-03-16T08:26:59.762Z,100588.63
2023-03-16T08:31:08.829Z,100589.78
2023-03-16T08:35:19.544Z,100590.91
2023-03-16T08:39:24.349Z,100584.38
2023-03-16T08:43:27.912Z,100584.50
2023-03-16T08:47:32.889Z,100575.84
2023-03-16T08:51:37.193Z,100575.19
2023-03-16T08:55:41.644Z,100576.09
2023-03-16T08:59:45.066Z,100571.69
2023-03-16T09:03:51.447Z,100566.59
2023-03-16T09:07:54.929Z,100565.19
2023-03-16T09:11:59.052Z,100574.28
2023-03-16T09:16:03.125Z,100558.25
2023-03-16T09:20:21.969Z,100549.16
2023-03-16T09:24:29.567Z,100546.88
2023-03-16T09:28:32.952Z,100551.50
2023-03-16T09:32:37.520Z,100544.44
2023-03-16T09:36:42.219Z,100544.19
2023-03-16T09:40:48.350Z,100530.22
2023-03-16T09:45:06.390Z,100520.41
2023-03-16T09:49:16.738Z,100527.41
2023-03-16T09:53:26.767Z,100514.47
2023-03-16T09:57:34.858Z,100525.75
2023-03-16T10:01:45.717Z,100522.38
2023-03-16T10:05:50.811Z,100501.50
2023-03-16T10:09:59.049Z,100516.06
2023-03-16T10:14:11.273Z,100514.28
2023-03-16T10:18:19.321Z,100512.47
2023-03-16T10:22:27.667Z,100507.22
2023-03-16T10:26:39.417Z,100496.16
2023-03-16T10:30:43.600Z,100485.25
2023-03-16T10:34:54.175Z,100482.13
2023-03-16T10:38:59.765Z,100467.97
2023-03-16T10:43:09.410Z,100474.44
2023-03-16T10:47:19.594Z,100470.66
2023-03-16T10:51:26.478Z,100462.63
2023-03-16T10:55:35.176Z,100462.06
2023-03-16T10:59:40.352Z,100480.25
2023-03-16T11:03:43.560Z,100468.00
2023-03-16T11:07:51.714Z,100458.81
2023-03-16T11:11:55.852Z,100466.16
2023-03-16T11:16:05.391Z,100468.81
2023-03-16T11:20:17.878Z,100463.13
2023-03-16T11:24:27.125Z,100462.19
2023-03-16T11:28:37.723Z,100448.06
2023-03-16T11:32:47.139Z,100441.03
2023-03-16T11:36:56.184Z,100440.59
2023-03-16T11:41:02.929Z,100435.13
2023-03-16T11:45:18.521Z,100418.56
2023-03-16T11:49:49.205Z,100417.88
2023-03-16T11:54:02.025Z,100399.09
2023-03-16T11:58:20.029Z,100385.91
2023-03-16T12:02:39.792Z,100383.72
2023-03-16T12:06:57.658Z,100381.09
2023-03-16T12:11:04.773Z,100370.66
2023-03-16T12:15:22.552Z,100370.13
2023-03-16T12:19:43.724Z,100367.69
2023-03-16T12:23:53.581Z,100347.13
2023-03-16T12:28:00.466Z,100349.53
2023-03-16T12:32:15.438Z,100344.97
2023-03-16T12:37:03.533Z,100347.16
2023-03-16T12:41:18.140Z,100339.25
2023-03-16T12:45:31.986Z,100323.69
2023-03-16T12:49:37.252Z,100312.38
2023-03-16T12:53:44.511Z,100316.66
2023-03-16T12:57:52.642Z,100303.50
2023-03-16T13:02:00.983Z,100307.47
2023-03-16T13:06:04.668Z,100300.84
2023-03-16T13:10:14.156Z,100303.03
2023-03-16T13:14:35.595Z,100283.81
2023-03-16T13:18:44.853Z,100275.34
2023-03-16T13:22:51.596Z,100268.25
2023-03-16T13:26:59.209Z,100263.34
2023-03-16T13:31:04.969Z,100268.75
2023-03-16T13:35:15.825Z,100248.72
2023-03-16T13:39:20.946Z,100256.75
2023-03-16T13:43:28.786Z,100252.66
2023-03-16T13:47:33.371Z,100240.63
2023-03-16T13:51:40.179Z,100227.56
2023-03-16T13:55:46.898Z,100215.78
2023-03-16T13:59:50.635Z,100222.31
2023-03-16T14:03:58.429Z,100209.31
2023-03-16T14:08:02.300Z,100197.00
2023-03-16T14:12:06.404Z,100194.53
2023-03-16T14:16:16.662Z,100195.94
2023-03-16T14:20:25.654Z,100186.84
2023-03-16T14:24:32.341Z,100182.91
2023-03-16T14:28:35.966Z,100186.84
2023-03-16T14:32:40.110Z,100183.25
2023-03-16T14:36:44.752Z,100157.56
2023-03-16T14:40:54.937Z,100137.84
2023-03-16T14:45:00.093Z,100149.81
2023-03-16T14:49:07.882Z,100149.75
2023-03-16T14:53:12.478Z,100150.13
2023-03-16T14:57:19.180Z,100139.63
2023-03-16T15:01:25.127Z,100144.88
2023-03-16T15:05:36.280Z,100137.47
2023-03-16T15:09:44.214Z,100128.13
2023-03-16T15:14:04.394Z,100119.16
2023-03-16T15:18:07.822Z,100115.28
2023-03-16T15:22:13.335Z,100110.84
2023-03-16T15:26:25.090Z,100108.91
2023-03-16T15:30:31.027Z,100105.25
2023-03-16T15:34:34.462Z,100093.88
2023-03-16T15:38:40.908Z,100083.69
2023-03-16T15:42:46.948Z,100076.88
2023-03-16T15:46:50.728Z,100073.38
2023-03-16T15:50:55.976Z,100082.28
2023-03-16T15:55:04.562Z,100074.25
2023-03-16T15:59:17.286Z,100069.59
2023-03-16T16:03:20.553Z,100061.28
2023-03-16T16:07:24.157Z,100050.38
2023-03-16T16:11:29.376Z,100056.13
2023-03-16T16:15:37.038Z,100047.69
2023-03-16T16:19:40.800Z,100045.63
2023-03-16T16:23:44.102Z,100039.81
2023-03-16T16:27:48.076Z,100042.28
2023-03-16T16:31:53.754Z,100034.66
2023-03-16T16:35:58.559Z,100034.28
2023-03-16T16:40:02.034Z,100027.13
2023-03-16T16:44:08.467Z,100030.78
2023-03-16T16:48:35.154Z,100028.47
2023-03-16T16:52:38.381Z,100039.69
2023-03-16T16:56:42.906Z,100033.06
2023-03-16T17:00:52.883Z,100038.94
2023-03-16T17:04:58.044Z,100038.56
2023-03-16T17:09:01.121Z,100047.06
2023-03-16T17:13:05.630Z,100042.28
2023-03-16T17:17:15.096Z,100040.44
2023-03-16T17:21:23.815Z,100033.81
2023-03-16T17:25:28.594Z,100038.06
2023-03-16T17:29:33.634Z,100037.44
2023-03-16T17:33:38.502Z,100048.75
2023-03-16T17:37:43.171Z,100048.81
2023-03-16T17:41:47.643Z,100039.72
2023-03-16T17:45:52.821Z,100039.06
2023-03-16T17:49:57.245Z,100051.16
2023-03-16T17:54:03.058Z,100045.06
2023-03-16T17:58:07.522Z,100040.59
2023-03-16T18:02:33.642Z,100051.47
2023-03-16T18:06:36.818Z,100056.03
2023-03-16T18:10:41.843Z,100057.38
2023-03-16T18:14:45.028Z,100057.78
2023-03-16T18:18:48.653Z,100050.53
2023-03-16T18:22:51.876Z,100048.59
2023-03-16T18:26:56.520Z,100040.22
2023-03-16T18:31:01.549Z,100040.22
2023-03-16T18:35:05.416Z,100043.59
2023-03-16T18:39:16.253Z,100049.13
2023-03-16T18:43:20.875Z,100055.88
2023-03-16T18:47:31.549Z,100045.31
2023-03-16T18:51:35.394Z,100041.53
2023-03-16T18:55:45.149Z,100049.19
2023-03-16T18:59:51.754Z,100047.50
2023-03-16T19:03:56.116Z,100049.88
2023-03-16T19:07:59.259Z,100048.88
2023-03-16T19:12:03.687Z,100048.28
2023-03-16T19:16:17.705Z,100044.31
2023-03-16T19:20:23.668Z,100047.09
2023-03-16T19:24:29.832Z,100052.19
2023-03-16T19:28:36.796Z,100055.16
2023-03-16T19:32:41.543Z,100053.28
2023-03-16T19:36:45.192Z,100046.44
2023-03-16T19:40:51.192Z,100034.22
2023-03-16T19:44:55.402Z,100026.03
2023-03-16T19:49:01.253Z,100018.50
2023-03-16T19:53:14.912Z,100016.22
2023-03-16T19:57:21.119Z,99997.53
2023-03-16T20:01:31.093Z,99988.72
2023-03-16T20:05:38.775Z,99989.84
2023-03-16T20:09:41.980Z,99983.72
2023-03-16T20:13:45.950Z,99986.66
2023-03-16T20:17:51.302Z,99974.94
2023-03-16T20:21:55.842Z,99979.53
2023-03-16T20:26:02.709Z,99974.13
2023-03-16T20:30:15.933Z,99964.47
2023-03-16T20:34:23.662Z,99952.28
2023-03-16T20:38:29.621Z,99950.38
2023-03-16T20:42:35.147Z,99942.19
2023-03-16T20:46:41.333Z,99938.84
2023-03-16T20:50:45.146Z,99933.00
2023-03-16T20:54:49.886Z,99927.94
2023-03-16T20:58:56.079Z,99921.84
2023-03-16T21:02:59.915Z,99918.69
2023-03-16T21:07:03.173Z,99913.25
2023-03-16T21:11:21.038Z,99905.66
2023-03-16T21:15:26.742Z,99899.78
2023-03-16T21:19:30.007Z,99901.94
2023-03-16T21:23:33.839Z,99898.78
2023-03-16T21:27:39.716Z,99901.69
2023-03-16T21:31:43.159Z,99892.91
2023-03-16T21:35:46.614Z,99898.16
2023-03-16T21:39:50.530Z,99888.06
2023-03-16T21:43:56.041Z,99888.50
2023-03-16T21:47:59.776Z,99888.31
2023-03-16T21:52:02.934Z,99885.59
2023-03-16T21:56:06.679Z,99888.50
2023-03-16T22:00:17.234Z,99881.19
2023-03-16T22:04:20.924Z,99880.78
2023-03-16T22:08:27.090Z,99856.19
2023-03-16T22:12:30.295Z,99863.94
2023-03-16T22:16:37.240Z,99868.34
2023-03-16T22:20:40.607Z,99859.53
2023-03-16T22:24:44.213Z,99871.69
2023-03-16T22:28:48.364Z,99878.00
2023-03-16T22:32:55.916Z,99865.84
2023-03-16T22:37:00.566Z,99867.97
2023-03-16T22:41:03.801Z,99863.31
2023-03-16T22:45:16.988Z,99847.56
2023-03-16T22:49:25.827Z,99842.38
2023-03-16T22:53:35.579Z,99846.13
2023-03-16T22:57:38.792Z,99861.84
2023-03-16T23:01:44.328Z,99865.41
2023-03-16T23:05:50.340Z,99856.81
2023-03-16T23:09:53.428Z,99846.50
2023-03-16T23:13:56.990Z,99836.03
2023-03-16T23:17:59.974Z,99831.88
2023-03-16T23:22:06.917Z,99845.28
2023-03-16T23:26:17.588Z,99855.19
2023-03-16T23:30:24.590Z,99861.47
2023-03-16T23:34:27.656Z,99886.00
2023-03-16T23:38:32.487Z,99873.91
2023-03-16T23:42:35.796Z,99888.38
2023-03-16T23:46:39.113Z,99891.78
2023-03-16T23:50:42.819Z,99901.25
2023-03-16T23:54:49.577Z,99902.97
2023-03-16T23:58:52.619Z,99888.72
